createdAt,value
2022-10-23T00:01:01.076Z,101405.06
2022-10-23T00:03:28.451Z,101399.59
2022-10-23T00:05:55.904Z,101401.50
2022-10-23T00:08:23.243Z,101403.16
2022-10-23T00:10:50.649Z,101401.28
2022-10-23T00:13:18.061Z,101404.22
2022-10-23T00:15:45.486Z,101407.56
2022-10-23T00:18:13.094Z,101408.41
2022-10-23T00:20:40.500Z,101400.19
2022-10-23T00:23:10.662Z,101395.78
2022-10-23T00:25:38.949Z,101396.84
2022-10-23T00:28:06.416Z,101405.88
2022-10-23T00:30:33.878Z,101408.88
2022-10-23T00:33:01.340Z,101401.72
2022-10-23T00:35:28.790Z,101401.72
2022-10-23T00:37:56.179Z,101401.50
2022-10-23T00:40:23.615Z,101396.03
2022-10-23T00:42:51.033Z,101394.31
2022-10-23T00:45:26.568Z,101391.84
2022-10-23T00:47:54.197Z,101397.31
2022-10-23T00:50:22.101Z,101393.50
2022-10-23T00:52:50.810Z,101396.25
2022-10-23T00:55:18.805Z,101386.59
2022-10-23T00:57:47.071Z,101394.59
2022-10-23T01:00:29.378Z,101400.88
2022-10-23T01:02:56.772Z,101394.31
2022-10-23T01:05:27.360Z,101386.38
2022-10-23T01:08:08.477Z,101393.72
2022-10-23T01:10:47.491Z,101401.13
2022-10-23T01:13:23.856Z,101403.84
2022-10-23T01:16:15.963Z,101400.06
2022-10-23T01:18:58.601Z,101395.41
2022-10-23T01:21:34.360Z,101398.16
2022-10-23T01:24:27.336Z,101389.94
2022-10-23T01:26:54.916Z,101384.47
2022-10-23T01:29:36.497Z,101386.81
2022-10-23T01:32:12.673Z,101381.94
2022-10-23T01:34:57.572Z,101384.69
2022-10-23T01:37:29.739Z,101387.19
2022-10-23T01:40:02.615Z,101387.19
2022-10-23T01:42:34.832Z,101377.28
2022-10-23T01:45:11.060Z,101382.16
2022-10-23T01:47:43.986Z,101383.84
2022-10-23T01:50:13.629Z,101390.16
2022-10-23T01:52:43.690Z,101372.91
2022-10-23T01:55:11.705Z,101373.72
2022-10-23T01:57:39.932Z,101380.28
2022-10-23T02:00:09.996Z,101381.94
2022-10-23T02:02:51.540Z,101378.38
2022-10-23T02:05:22.660Z,101378.16
2022-10-23T02:07:50.261Z,101380.88
2022-10-23T02:10:17.865Z,101370.75
2022-10-23T02:13:10.112Z,101374.56
2022-10-23T02:16:12.764Z,101374.31
2022-10-23T02:18:57.171Z,101366.09
2022-10-23T02:21:35.315Z,101369.69
2022-10-23T02:24:04.807Z,101366.94
2022-10-23T02:26:59.730Z,101375.41
2022-10-23T02:29:50.382Z,101370.88
2022-10-23T02:32:19.912Z,101371.97
2022-10-23T02:34:48.749Z,101376.00
2022-10-23T02:37:16.440Z,101374.31
2022-10-23T02:39:43.974Z,101376.25
2022-10-23T02:42:14.832Z,101376.25
2022-10-23T02:45:05.175Z,101376.25
2022-10-23T02:47:38.709Z,101366.34
2022-10-23T02:50:21.625Z,101361.94
2022-10-23T02:53:26.520Z,101366.34
2022-10-23T02:56:21.592Z,101358.13
2022-10-23T02:58:56.774Z,101367.78
2022-10-23T03:01:34.061Z,101360.63
2022-10-23T03:04:03.296Z,101358.97
2022-10-23T03:06:32.328Z,101370.75
2022-10-23T03:09:02.348Z,101367.19
2022-10-23T03:11:30.027Z,101362.75
2022-10-23T03:13:57.470Z,101364.44
2022-10-23T03:16:24.952Z,101366.09
2022-10-23T03:18:55.006Z,101371.59
2022-10-23T03:21:22.483Z,101371.81
2022-10-23T03:23:53.137Z,101371.81
2022-10-23T03:26:28.775Z,101364.44
2022-10-23T03:28:57.068Z,101367.78
2022-10-23T03:31:24.781Z,101369.44
2022-10-23T03:33:56.890Z,101363.38
2022-10-23T03:36:24.303Z,101370.75
2022-10-23T03:38:51.719Z,101369.94
2022-10-23T03:41:19.118Z,101372.41
2022-10-23T03:43:46.551Z,101377.88
2022-10-23T03:46:13.970Z,101378.75
2022-10-23T03:48:42.104Z,101371.34
2022-10-23T03:51:09.620Z,101366.72
2022-10-23T03:53:40.516Z,101374.09
2022-10-23T03:56:07.899Z,101373.28
2022-10-23T03:58:35.309Z,101369.69
2022-10-23T04:01:02.757Z,101370.53
2022-10-23T04:03:30.186Z,101375.53
2022-10-23T04:05:57.609Z,101378.50
2022-10-23T04:08:25.148Z,101376.63
2022-10-23T04:10:55.024Z,101376.00
2022-10-23T04:13:32.356Z,101380.41
2022-10-23T04:15:59.793Z,101385.88
2022-10-23T04:18:27.213Z,101380.88
2022-10-23T04:20:54.662Z,101386.97
2022-10-23T04:23:22.212Z,101390.53
2022-10-23T04:25:49.696Z,101396.03
2022-10-23T04:28:17.167Z,101393.28
2022-10-23T04:30:46.119Z,101403.41
2022-10-23T04:33:13.576Z,101403.63
2022-10-23T04:35:41.135Z,101406.16
2022-10-23T04:38:08.644Z,101407.19
2022-10-23T04:40:36.076Z,101402.81
2022-10-23T04:43:04.097Z,101412.69
2022-10-23T04:45:36.185Z,101411.63
2022-10-23T04:48:03.748Z,101417.09
2022-10-23T04:53:43.912Z,101397.94
2022-10-23T04:56:31.107Z,101397.56
2022-10-23T05:01:40.036Z,101385.50
2022-10-23T05:04:09.617Z,101383.63
2022-10-23T05:07:09.367Z,101385.28
2022-10-23T05:09:44.671Z,101385.50
2022-10-23T05:12:41.704Z,101374.31
2022-10-23T05:15:09.464Z,101375.16
2022-10-23T05:17:37.629Z,101381.72
2022-10-23T05:20:07.671Z,101374.56
2022-10-23T05:22:36.656Z,101375.63
2022-10-23T05:25:07.155Z,101379.19
2022-10-23T05:27:35.050Z,101381.72
2022-10-23T05:30:06.479Z,101393.72
2022-10-23T05:32:37.147Z,101389.94
2022-10-23T05:35:08.231Z,101399.19
2022-10-23T05:37:38.291Z,101401.94
2022-10-23T05:40:13.172Z,101405.53
2022-10-23T05:42:42.186Z,101401.13
2022-10-23T05:45:11.567Z,101396.72
2022-10-23T05:48:10.673Z,101405.53
2022-10-23T05:51:09.261Z,101400.28
2022-10-23T05:53:56.900Z,101403.03
2022-10-23T05:56:36.048Z,101407.69
2022-10-23T05:59:21.955Z,101404.34
2022-10-23T06:02:00.429Z,101414.22
2022-10-23T06:04:48.649Z,101407.91
2022-10-23T06:07:32.320Z,101415.28
2022-10-23T06:10:05.565Z,101414.44
2022-10-23T06:12:35.043Z,101417.16
2022-10-23T06:15:02.544Z,101419.06
2022-10-23T06:17:49.277Z,101418.03
2022-10-23T06:20:16.789Z,101423.50
2022-10-23T06:22:49.915Z,101423.69
2022-10-23T06:25:37.249Z,101431.47
2022-10-23T06:28:05.469Z,101436.94
2022-10-23T06:30:34.463Z,101450.66
2022-10-23T06:33:04.518Z,101441.59
2022-10-23T06:35:34.408Z,101434.00
2022-10-23T06:38:02.028Z,101429.59
2022-10-23T06:40:38.487Z,101442.19
2022-10-23T06:43:08.613Z,101439.69
2022-10-23T06:46:13.114Z,101434.38
2022-10-23T06:49:16.234Z,101444.50
2022-10-23T06:51:48.761Z,101444.72
2022-10-23T06:54:21.008Z,101440.28
2022-10-23T06:56:51.926Z,101453.16
2022-10-23T06:59:23.490Z,101455.91
2022-10-23T07:04:25.648Z,101452.13
2022-10-23T07:06:57.335Z,101454.84
2022-10-23T07:09:30.190Z,101455.69
2022-10-23T07:11:59.190Z,101459.25
2022-10-23T07:14:39.950Z,101469.97
2022-10-23T07:17:07.902Z,101466.16
2022-10-23T07:19:35.299Z,101476.28
2022-10-23T07:22:12.003Z,101482.38
2022-10-23T07:25:06.005Z,101484.88
2022-10-23T07:27:38.543Z,101496.69
2022-10-23T07:30:08.824Z,101486.81
2022-10-23T07:32:45.638Z,101478.59
2022-10-23T07:37:56.972Z,101480.25
2022-10-23T07:40:24.895Z,101491.19
2022-10-23T07:42:55.249Z,101495.84
2022-10-23T07:45:22.997Z,101499.41
2022-10-23T07:47:53.011Z,101488.47
2022-10-23T07:50:23.658Z,101493.72
2022-10-23T07:52:51.177Z,101494.53
2022-10-23T07:55:18.658Z,101501.72
2022-10-23T07:58:03.029Z,101495.41
2022-10-23T08:00:40.836Z,101495.16
2022-10-23T08:03:15.747Z,101493.50
2022-10-23T08:05:43.276Z,101497.88
2022-10-23T08:08:10.691Z,101508.03
2022-10-23T08:10:42.488Z,101500.88
2022-10-23T08:13:14.292Z,101503.38
2022-10-23T08:16:00.090Z,101509.47
2022-10-23T08:19:02.613Z,101506.97
2022-10-23T08:21:30.305Z,101518.16
2022-10-23T08:23:58.448Z,101512.66
2022-10-23T08:26:26.611Z,101510.97
2022-10-23T08:28:53.998Z,101512.66
2022-10-23T08:31:25.603Z,101521.94
2022-10-23T08:34:11.626Z,101523.63
2022-10-23T08:36:39.360Z,101518.16
2022-10-23T08:39:07.308Z,101523.63
2022-10-23T08:41:36.816Z,101520.06
2022-10-23T08:44:30.857Z,101520.88
2022-10-23T08:47:08.142Z,101506.97
2022-10-23T08:49:56.658Z,101520.41
2022-10-23T08:52:52.191Z,101522.56
2022-10-23T08:55:40.864Z,101522.56
2022-10-23T08:58:39.157Z,101527.81
2022-10-23T09:01:30.300Z,101522.56
2022-10-23T09:03:57.799Z,101516.03
2022-10-23T09:06:39.739Z,101517.31
2022-10-23T09:09:35.016Z,101522.56
2022-10-23T09:12:12.011Z,101522.56
2022-10-23T09:15:13.131Z,101520.88
2022-10-23T09:17:44.353Z,101510.53
2022-10-23T09:20:25.658Z,101510.75
2022-10-23T09:22:55.051Z,101513.50
2022-10-23T09:25:27.732Z,101512.66
2022-10-23T09:28:01.535Z,101509.94
2022-10-23T09:30:36.760Z,101499.81
2022-10-23T09:33:24.098Z,101496.44
2022-10-23T09:35:58.513Z,101501.72
2022-10-23T09:38:44.348Z,101501.84
2022-10-23T09:41:16.798Z,101497.44
2022-10-23T09:43:44.223Z,101502.09
2022-10-23T09:46:12.268Z,101500.41
2022-10-23T09:48:42.229Z,101502.31
2022-10-23T09:51:19.487Z,101503.38
2022-10-23T09:53:57.253Z,101509.94
2022-10-23T09:56:30.315Z,101514.59
2022-10-23T09:59:13.041Z,101520.06
2022-10-23T10:01:54.905Z,101523.63
2022-10-23T10:04:57.419Z,101528.63
2022-10-23T10:07:26.680Z,101529.72
2022-10-23T10:09:54.710Z,101516.03
2022-10-23T10:12:37.580Z,101523.16
2022-10-23T10:15:16.319Z,101514.34
2022-10-23T10:17:55.675Z,101516.84
2022-10-23T10:20:37.800Z,101514.94
2022-10-23T10:23:18.414Z,101530.31
2022-10-23T10:25:59.249Z,101524.25
2022-10-23T10:28:35.761Z,101519.38
2022-10-23T10:31:09.811Z,101517.69
2022-10-23T10:33:49.339Z,101507.81
2022-10-23T10:36:40.794Z,101509.72
2022-10-23T10:39:50.117Z,101501.50
2022-10-23T10:42:22.679Z,101506.72
2022-10-23T10:45:27.808Z,101510.53
2022-10-23T10:48:16.597Z,101506.97
2022-10-23T10:51:28.913Z,101493.88
2022-10-23T10:54:00.930Z,101496.84
2022-10-23T10:56:29.575Z,101498.50
2022-10-23T10:58:59.576Z,101494.94
2022-10-23T11:01:47.398Z,101496.84
2022-10-23T11:04:21.700Z,101489.44
2022-10-23T11:06:51.199Z,101483.75
2022-10-23T11:09:22.565Z,101480.19
2022-10-23T11:11:50.103Z,101468.34
2022-10-23T11:14:18.911Z,101473.84
2022-10-23T11:16:49.643Z,101481.00
2022-10-23T11:19:21.545Z,101472.78
2022-10-23T11:21:54.930Z,101468.13
2022-10-23T11:24:36.038Z,101460.13
2022-10-23T11:27:27.855Z,101453.59
2022-10-23T11:30:17.659Z,101451.91
2022-10-23T11:32:58.157Z,101452.53
2022-10-23T11:35:57.225Z,101439.91
2022-10-23T11:38:30.137Z,101437.16
2022-10-23T11:41:03.772Z,101451.91
2022-10-23T11:43:46.844Z,101442.66
2022-10-23T11:46:38.161Z,101434.44
2022-10-23T11:49:20.421Z,101435.25
2022-10-23T11:51:47.780Z,101435.25
2022-10-23T11:54:15.243Z,101436.09
2022-10-23T11:57:10.405Z,101430.84
2022-10-23T11:59:41.254Z,101438.81
2022-10-23T12:02:33.343Z,101428.94
2022-10-23T12:05:04.284Z,101432.50
2022-10-23T12:07:37.079Z,101431.69
2022-10-23T12:10:21.311Z,101423.25
2022-10-23T12:12:56.584Z,101419.63
2022-10-23T12:15:24.734Z,101415.03
2022-10-23T12:17:54.226Z,101425.13
2022-10-23T12:21:03.293Z,101427.03
2022-10-23T12:23:49.757Z,101426.81
2022-10-23T12:26:28.541Z,101426.81
2022-10-23T12:29:08.758Z,101425.13
2022-10-23T12:32:08.872Z,101415.25
2022-10-23T12:34:48.665Z,101413.34
2022-10-23T12:37:45.549Z,101408.69
2022-10-23T12:40:12.962Z,101409.28
2022-10-23T12:42:40.844Z,101399.41
2022-10-23T12:45:23.855Z,101393.31
2022-10-23T12:47:51.418Z,101394.97
2022-10-23T12:50:21.473Z,101391.41
2022-10-23T12:52:55.352Z,101378.53
2022-10-23T12:55:23.834Z,101385.72
2022-10-23T12:57:51.236Z,101381.06
2022-10-23T13:00:22.770Z,101383.78
2022-10-23T13:03:04.013Z,101380.47
2022-10-23T13:05:32.161Z,101370.94
2022-10-23T13:07:59.658Z,101357.47
2022-10-23T13:10:40.182Z,101362.72
2022-10-23T13:13:11.385Z,101355.56
2022-10-23T13:15:40.606Z,101361.88
2022-10-23T13:18:08.918Z,101354.47
2022-10-23T13:20:40.722Z,101352.00
2022-10-23T13:23:09.727Z,101355.34
2022-10-23T13:25:38.446Z,101356.41
2022-10-23T13:28:13.523Z,101358.31
2022-10-23T13:30:43.060Z,101358.09
2022-10-23T13:33:23.777Z,101349.88
2022-10-23T13:36:01.949Z,101356.16
2022-10-23T13:38:36.267Z,101348.19
2022-10-23T13:41:04.621Z,101354.63
2022-10-23T13:43:32.413Z,101353.56
2022-10-23T13:46:00.380Z,101356.78
2022-10-23T13:48:28.034Z,101352.34
2022-10-23T13:50:58.517Z,101350.69
2022-10-23T13:53:25.981Z,101356.16
2022-10-23T13:55:56.296Z,101354.25
2022-10-23T13:58:26.076Z,101359.97
2022-10-23T14:00:53.739Z,101350.69
2022-10-23T14:03:24.312Z,101358.09
2022-10-23T14:05:51.943Z,101350.69
2022-10-23T14:08:19.386Z,101356.16
2022-10-23T14:10:46.819Z,101347.94
2022-10-23T14:13:14.198Z,101362.47
2022-10-23T14:15:41.599Z,101354.25
2022-10-23T14:18:09.012Z,101352.00
2022-10-23T14:20:38.404Z,101342.69
2022-10-23T14:23:05.801Z,101350.91
2022-10-23T14:25:33.229Z,101350.69
2022-10-23T14:28:00.641Z,101356.41
2022-10-23T14:30:28.014Z,101349.88
2022-10-23T14:32:55.395Z,101352.34
2022-10-23T14:35:22.827Z,101357.81
2022-10-23T14:37:50.252Z,101358.91
2022-10-23T14:40:17.674Z,101353.44
2022-10-23T14:42:45.349Z,101346.03
2022-10-23T14:45:12.906Z,101344.38
2022-10-23T14:47:40.327Z,101349.88
2022-10-23T14:50:08.205Z,101347.13
2022-10-23T14:52:35.599Z,101349.88
2022-10-23T14:55:03.066Z,101351.53
2022-10-23T14:57:30.742Z,101357.00
2022-10-23T14:59:58.143Z,101353.19
2022-10-23T15:02:25.593Z,101357.00
2022-10-23T15:04:53.008Z,101347.94
2022-10-23T15:07:20.436Z,101351.53
2022-10-23T15:09:47.830Z,101353.19
2022-10-23T15:12:15.236Z,101350.69
2022-10-23T15:14:42.613Z,101353.19
2022-10-23T15:17:15.474Z,101351.53
2022-10-23T15:19:43.309Z,101352.34
2022-10-23T15:22:10.672Z,101346.88
2022-10-23T15:24:38.040Z,101342.69
2022-10-23T15:27:05.500Z,101346.88
2022-10-23T15:29:33.009Z,101341.38
2022-10-23T15:32:00.379Z,101331.50
2022-10-23T15:34:28.731Z,101342.47
2022-10-23T15:36:56.688Z,101341.38
2022-10-23T15:39:33.903Z,101335.06
2022-10-23T15:42:02.660Z,101339.72
2022-10-23T15:44:30.829Z,101339.50
2022-10-23T15:46:58.424Z,101335.91
2022-10-23T15:49:26.747Z,101335.91
2022-10-23T15:51:54.286Z,101335.91
2022-10-23T15:54:21.769Z,101339.50
2022-10-23T15:56:50.809Z,101343.28
2022-10-23T15:59:18.881Z,101337.81
2022-10-23T16:01:46.488Z,101347.72
2022-10-23T16:04:15.852Z,101346.03
2022-10-23T16:06:44.730Z,101351.53
2022-10-23T16:09:12.313Z,101352.34
2022-10-23T16:11:40.029Z,101348.56
2022-10-23T16:14:07.576Z,101346.88
2022-10-23T16:16:37.657Z,101358.69
2022-10-23T16:19:05.138Z,101349.59
2022-10-23T16:21:34.265Z,101355.94
2022-10-23T16:24:02.441Z,101347.72
2022-10-23T16:26:30.661Z,101354.03
2022-10-23T16:28:59.828Z,101349.59
2022-10-23T16:31:27.454Z,101352.34
2022-10-23T16:36:29.227Z,101349.59
2022-10-23T16:39:20.050Z,101355.69
2022-10-23T16:42:06.139Z,101358.44
2022-10-23T16:44:52.012Z,101365.59
2022-10-23T16:47:19.691Z,101365.00
2022-10-23T16:49:47.134Z,101369.66
2022-10-23T16:52:14.540Z,101368.78
2022-10-23T16:54:43.417Z,101369.66
2022-10-23T16:57:10.835Z,101378.69
2022-10-23T16:59:38.348Z,101373.22
2022-10-23T17:02:05.880Z,101384.16
2022-10-23T17:04:33.372Z,101382.50
2022-10-23T17:07:00.786Z,101378.91
2022-10-23T17:09:31.277Z,101380.84
2022-10-23T17:12:17.753Z,101385.22
2022-10-23T17:14:45.162Z,101401.44
2022-10-23T17:17:13.625Z,101403.34
2022-10-23T17:19:46.015Z,101395.13
2022-10-23T17:22:14.216Z,101409.88
2022-10-23T17:24:42.055Z,101407.16
2022-10-23T17:27:09.578Z,101398.69
2022-10-23T17:29:36.978Z,101401.66
2022-10-23T17:32:04.651Z,101408.84
2022-10-23T17:34:33.468Z,101404.19
2022-10-23T17:37:02.374Z,101403.34
2022-10-23T17:39:29.978Z,101403.59
2022-10-23T17:41:57.533Z,101408.00
2022-10-23T17:44:24.927Z,101410.16
2022-10-23T17:46:53.589Z,101411.19
2022-10-23T17:49:21.686Z,101411.81
2022-10-23T17:51:54.391Z,101415.38
2022-10-23T17:54:21.940Z,101407.41
2022-10-23T17:56:52.008Z,101408.59
2022-10-23T17:59:19.749Z,101418.09
2022-10-23T18:01:48.284Z,101413.72
2022-10-23T18:04:17.228Z,101412.63
2022-10-23T18:06:49.532Z,101416.22
2022-10-23T18:09:17.166Z,101404.66
2022-10-23T18:11:48.446Z,101409.88
2022-10-23T18:14:17.460Z,101410.97
2022-10-23T18:16:46.005Z,101408.00
2022-10-23T18:19:14.538Z,101408.22
2022-10-23T18:21:41.968Z,101404.88
2022-10-23T18:24:09.422Z,101402.97
2022-10-23T18:26:39.208Z,101407.41
2022-10-23T18:29:08.817Z,101397.50
2022-10-23T18:31:37.391Z,101402.16
2022-10-23T18:34:07.583Z,101394.97
2022-10-23T18:36:37.231Z,101398.81
2022-10-23T18:39:05.444Z,101404.28
2022-10-23T18:41:34.956Z,101403.47
2022-10-23T18:44:02.416Z,101400.72
2022-10-23T18:46:29.863Z,101396.06
2022-10-23T18:48:57.360Z,101397.97
2022-10-23T18:51:30.230Z,101402.38
2022-10-23T18:53:57.713Z,101406.19
2022-10-23T18:56:26.792Z,101399.84
2022-10-23T18:58:55.723Z,101397.97
2022-10-23T19:01:23.408Z,101396.91
2022-10-23T19:03:51.356Z,101391.63
2022-10-23T19:06:19.082Z,101390.81
2022-10-23T19:08:46.637Z,101397.13
2022-10-23T19:11:14.881Z,101384.50
2022-10-23T19:13:43.276Z,101386.41
2022-10-23T19:16:12.522Z,101388.06
2022-10-23T19:18:40.897Z,101384.50
2022-10-23T19:21:08.306Z,101397.38
2022-10-23T19:23:36.475Z,101397.59
2022-10-23T19:26:11.096Z,101400.34
2022-10-23T19:28:40.813Z,101407.72
2022-10-23T19:31:10.254Z,101412.13
2022-10-23T19:33:40.823Z,101413.81
2022-10-23T19:36:12.577Z,101413.22
2022-10-23T19:38:42.599Z,101414.88
2022-10-23T19:41:10.168Z,101421.19
2022-10-23T19:43:43.429Z,101415.09
2022-10-23T19:46:12.387Z,101410.69
2022-10-23T19:48:44.402Z,101409.63
2022-10-23T19:51:13.323Z,101421.19
2022-10-23T19:53:42.268Z,101415.94
2022-10-23T19:56:11.572Z,101417.00
2022-10-23T19:58:39.562Z,101417.84
2022-10-23T20:01:13.205Z,101416.19
2022-10-23T20:03:41.889Z,101421.44
2022-10-23T20:06:10.776Z,101426.06
2022-10-23T20:08:38.683Z,101428.78
2022-10-23T20:11:06.536Z,101420.78
2022-10-23T20:13:34.190Z,101409.63
2022-10-23T20:16:01.755Z,101410.69
2022-10-23T20:18:29.475Z,101409.84
2022-10-23T20:20:56.868Z,101410.09
2022-10-23T20:23:24.245Z,101402.69
2022-10-23T20:25:51.665Z,101402.47
2022-10-23T20:28:19.111Z,101392.56
2022-10-23T20:30:46.593Z,101404.63
2022-10-23T20:33:14.038Z,101407.34
2022-10-23T20:35:41.686Z,101410.91
2022-10-23T20:38:09.323Z,101407.34
2022-10-23T20:40:36.724Z,101411.97
2022-10-23T20:43:04.123Z,101411.75
2022-10-23T20:45:31.583Z,101431.16
2022-10-23T20:47:58.934Z,101420.19
2022-10-23T20:50:26.294Z,101430.94
2022-10-23T20:52:53.786Z,101414.50
2022-10-23T20:55:21.241Z,101411.75
2022-10-23T20:57:48.607Z,101408.19
2022-10-23T21:00:16.199Z,101420.56
2022-10-23T21:02:47.002Z,101414.25
2022-10-23T21:05:16.027Z,101408.19
2022-10-23T21:07:43.396Z,101423.31
2022-10-23T21:10:10.781Z,101419.97
2022-10-23T21:12:38.121Z,101428.19
2022-10-23T21:15:06.061Z,101440.22
2022-10-23T21:17:36.078Z,101448.66
2022-10-23T21:20:03.863Z,101444.84
2022-10-23T21:22:31.321Z,101444.03
2022-10-23T21:25:00.122Z,101446.53
2022-10-23T21:27:27.550Z,101441.28
2022-10-23T21:29:54.935Z,101445.09
2022-10-23T21:32:22.276Z,101439.84
2022-10-23T21:34:49.657Z,101422.59
2022-10-23T21:37:17.080Z,101425.31
2022-10-23T21:39:44.627Z,101429.94
2022-10-23T21:42:12.796Z,101413.28
2022-10-23T21:44:40.331Z,101392.44
2022-10-23T21:47:07.742Z,101401.50
2022-10-23T21:49:35.195Z,101390.53
2022-10-23T21:52:02.609Z,101391.59
2022-10-23T21:54:30.002Z,101388.84
2022-10-23T21:56:57.378Z,101392.66
2022-10-23T21:59:30.015Z,101388.03
2022-10-23T22:01:59.249Z,101394.31
2022-10-23T22:04:26.878Z,101397.06
2022-10-23T22:06:54.376Z,101397.06
2022-10-23T22:09:22.244Z,101395.19
2022-10-23T22:11:50.382Z,101410.53
2022-10-23T22:14:17.830Z,101405.88
2022-10-23T22:16:45.254Z,101402.31
2022-10-23T22:19:13.625Z,101406.16
2022-10-23T22:21:41.055Z,101398.97
2022-10-23T22:24:08.548Z,101399.19
2022-10-23T22:26:43.136Z,101390.75
2022-10-23T22:29:12.130Z,101392.66
2022-10-23T22:31:39.570Z,101392.66
2022-10-23T22:34:20.148Z,101403.63
2022-10-23T22:36:56.923Z,101386.38
2022-10-23T22:39:24.435Z,101378.16
2022-10-23T22:41:52.188Z,101374.56
2022-10-23T22:44:19.693Z,101377.28
2022-10-23T22:46:49.836Z,101369.94
2022-10-23T22:49:17.342Z,101371.81
2022-10-23T22:51:44.757Z,101377.28
2022-10-23T22:54:12.161Z,101376.25
2022-10-23T22:56:39.605Z,101373.28
2022-10-23T22:59:07.005Z,101375.16
2022-10-23T23:01:39.543Z,101362.53
2022-10-23T23:04:19.454Z,101356.84
2022-10-23T23:06:53.592Z,101358.13
2022-10-23T23:09:21.018Z,101347.16
2022-10-23T23:11:52.476Z,101350.16
2022-10-23T23:14:24.449Z,101340.03
2022-10-23T23:16:52.829Z,101359.19
2022-10-23T23:19:20.378Z,101361.72
2022-10-23T23:21:47.817Z,101363.84
2022-10-23T23:24:15.231Z,101361.13
2022-10-23T23:26:42.616Z,101357.50
2022-10-23T23:29:10.068Z,101357.28
2022-10-23T23:31:37.488Z,101362.75
2022-10-23T23:34:04.928Z,101364.91
2022-10-23T23:36:32.751Z,101346.81
2022-10-23T23:39:00.223Z,101344.06
2022-10-23T23:41:27.797Z,101349.75
2022-10-23T23:43:55.892Z,101350.56
2022-10-23T23:46:23.417Z,101362.38
2022-10-23T23:48:50.879Z,101357.78
2022-10-23T23:51:19.972Z,101347.84
2022-10-23T23:53:48.028Z,101343.22
2022-10-23T23:56:15.687Z,101350.56
2022-10-23T23:58:45.762Z,101353.13
